sensor_id;sensor_type;location;lat;lon;timestamp;P1;durP1;ratioP1;P2;durP2;ratioP2
11763;SDS011;5939;56.522;14.950;2023-03-17T00:01:05;1.60;;;1.23;;
11763;SDS011;5939;56.522;14.950;2023-03-17T00:03:32;1.97;;;1.30;;
11763;SDS011;5939;56.522;14.950;2023-03-17T00:06:02;1.50;;;1.20;;
11763;SDS011;5939;56.522;14.950;2023-03-17T00:08:30;2.23;;;1.50;;
11763;SDS011;5939;56.522;14.950;2023-03-17T00:10:58;2.60;;;1.10;;
11763;SDS011;5939;56.522;14.950;2023-03-17T00:13:24;2.93;;;1.20;;
11763;SDS011;5939;56.522;14.950;2023-03-17T00:15:52;1.30;;;1.07;;
11763;SDS011;5939;56.522;14.950;2023-03-17T00:18:20;1.27;;;0.93;;
11763;SDS011;5939;56.522;14.950;2023-03-17T00:20:47;3.63;;;1.13;;
11763;SDS011;5939;56.522;14.950;2023-03-17T00:23:17;2.47;;;1.40;;
11763;SDS011;5939;56.522;14.950;2023-03-17T00:25:44;3.00;;;1.10;;
11763;SDS011;5939;56.522;14.950;2023-03-17T00:28:15;1.60;;;1.30;;
11763;SDS011;5939;56.522;14.950;2023-03-17T00:30:46;1.43;;;1.20;;
11763;SDS011;5939;56.522;14.950;2023-03-17T00:33:12;2.60;;;1.57;;
11763;SDS011;5939;56.522;14.950;2023-03-17T00:35:40;2.20;;;1.10;;
11763;SDS011;5939;56.522;14.950;2023-03-17T00:38:15;2.03;;;1.20;;
11763;SDS011;5939;56.522;14.950;2023-03-17T00:40:41;3.67;;;1.40;;
11763;SDS011;5939;56.522;14.950;2023-03-17T00:43:08;2.10;;;1.23;;
11763;SDS011;5939;56.522;14.950;2023-03-17T00:45:34;3.67;;;1.27;;
11763;SDS011;5939;56.522;14.950;2023-03-17T00:48:00;1.57;;;1.13;;
11763;SDS011;5939;56.522;14.950;2023-03-17T00:50:27;2.10;;;1.50;;
11763;SDS011;5939;56.522;14.950;2023-03-17T00:52:55;2.90;;;1.50;;
11763;SDS011;5939;56.522;14.950;2023-03-17T00:55:22;4.13;;;1.73;;
11763;SDS011;5939;56.522;14.950;2023-03-17T00:57:49;2.77;;;1.10;;
11763;SDS011;5939;56.522;14.950;2023-03-17T01:02:52;2.30;;;1.30;;
11763;SDS011;5939;56.522;14.950;2023-03-17T01:05:19;2.90;;;1.77;;
11763;SDS011;5939;56.522;14.950;2023-03-17T01:07:47;3.07;;;1.10;;
11763;SDS011;5939;56.522;14.950;2023-03-17T01:10:26;2.53;;;1.27;;
11763;SDS011;5939;56.522;14.950;2023-03-17T01:12:53;1.23;;;1.10;;
11763;SDS011;5939;56.522;14.950;2023-03-17T01:15:25;1.97;;;1.10;;
11763;SDS011;5939;56.522;14.950;2023-03-17T01:17:54;3.20;;;1.20;;
11763;SDS011;5939;56.522;14.950;2023-03-17T01:20:25;2.60;;;1.30;;
11763;SDS011;5939;56.522;14.950;2023-03-17T01:22:53;3.67;;;1.60;;
11763;SDS011;5939;56.522;14.950;2023-03-17T01:25:19;1.43;;;1.00;;
11763;SDS011;5939;56.522;14.950;2023-03-17T01:27:46;2.03;;;1.20;;
11763;SDS011;5939;56.522;14.950;2023-03-17T01:32:47;3.60;;;1.13;;
11763;SDS011;5939;56.522;14.950;2023-03-17T01:35:13;2.63;;;1.30;;
11763;SDS011;5939;56.522;14.950;2023-03-17T01:37:38;3.27;;;1.20;;
11763;SDS011;5939;56.522;14.950;2023-03-17T01:40:09;1.67;;;1.20;;
11763;SDS011;5939;56.522;14.950;2023-03-17T01:42:38;2.23;;;1.33;;
11763;SDS011;5939;56.522;14.950;2023-03-17T01:46:04;1.83;;;1.00;;
11763;SDS011;5939;56.522;14.950;2023-03-17T01:48:11;1.73;;;1.20;;
11763;SDS011;5939;56.522;14.950;2023-03-17T01:50:37;2.20;;;1.20;;
11763;SDS011;5939;56.522;14.950;2023-03-17T01:53:03;2.43;;;1.20;;
11763;SDS011;5939;56.522;14.950;2023-03-17T01:55:30;2.13;;;1.00;;
11763;SDS011;5939;56.522;14.950;2023-03-17T01:57:55;1.47;;;1.13;;
11763;SDS011;5939;56.522;14.950;2023-03-17T02:00:23;2.80;;;1.20;;
11763;SDS011;5939;56.522;14.950;2023-03-17T02:02:51;4.13;;;1.30;;
11763;SDS011;5939;56.522;14.950;2023-03-17T02:05:21;1.57;;;1.30;;
11763;SDS011;5939;56.522;14.950;2023-03-17T02:07:50;3.23;;;1.30;;
11763;SDS011;5939;56.522;14.950;2023-03-17T02:10:17;1.63;;;1.20;;
11763;SDS011;5939;56.522;14.950;2023-03-17T02:12:46;1.90;;;1.30;;
11763;SDS011;5939;56.522;14.950;2023-03-17T02:15:16;2.43;;;1.57;;
11763;SDS011;5939;56.522;14.950;2023-03-17T02:17:42;1.33;;;1.00;;
11763;SDS011;5939;56.522;14.950;2023-03-17T02:22:39;4.00;;;1.40;;
11763;SDS011;5939;56.522;14.950;2023-03-17T02:25:06;1.20;;;1.10;;
11763;SDS011;5939;56.522;14.950;2023-03-17T02:27:33;2.37;;;1.40;;
11763;SDS011;5939;56.522;14.950;2023-03-17T02:30:01;1.40;;;1.10;;
11763;SDS011;5939;56.522;14.950;2023-03-17T02:32:33;2.37;;;1.10;;
11763;SDS011;5939;56.522;14.950;2023-03-17T02:35:00;1.67;;;1.00;;
11763;SDS011;5939;56.522;14.950;2023-03-17T02:37:26;1.33;;;1.10;;
11763;SDS011;5939;56.522;14.950;2023-03-17T02:39:52;3.50;;;1.30;;
11763;SDS011;5939;56.522;14.950;2023-03-17T02:42:18;2.27;;;1.00;;
11763;SDS011;5939;56.522;14.950;2023-03-17T02:44:44;1.93;;;1.17;;
11763;SDS011;5939;56.522;14.950;2023-03-17T02:47:10;2.30;;;1.20;;
11763;SDS011;5939;56.522;14.950;2023-03-17T02:49:37;2.53;;;1.10;;
11763;SDS011;5939;56.522;14.950;2023-03-17T02:52:04;2.87;;;1.23;;
11763;SDS011;5939;56.522;14.950;2023-03-17T02:54:31;1.33;;;1.23;;
11763;SDS011;5939;56.522;14.950;2023-03-17T02:56:57;3.67;;;1.40;;
11763;SDS011;5939;56.522;14.950;2023-03-17T02:59:24;1.77;;;1.13;;
11763;SDS011;5939;56.522;14.950;2023-03-17T03:01:50;1.47;;;1.20;;
11763;SDS011;5939;56.522;14.950;2023-03-17T03:04:16;3.73;;;1.40;;
11763;SDS011;5939;56.522;14.950;2023-03-17T03:06:43;3.30;;;1.30;;
11763;SDS011;5939;56.522;14.950;2023-03-17T03:09:09;1.23;;;1.13;;
11763;SDS011;5939;56.522;14.950;2023-03-17T03:11:36;1.80;;;1.20;;
11763;SDS011;5939;56.522;14.950;2023-03-17T03:14:05;2.63;;;1.20;;
11763;SDS011;5939;56.522;14.950;2023-03-17T03:16:32;1.97;;;1.30;;
11763;SDS011;5939;56.522;14.950;2023-03-17T03:18:58;2.37;;;1.20;;
11763;SDS011;5939;56.522;14.950;2023-03-17T03:21:24;3.20;;;1.17;;
11763;SDS011;5939;56.522;14.950;2023-03-17T03:23:50;2.17;;;1.00;;
11763;SDS011;5939;56.522;14.950;2023-03-17T03:26:16;3.97;;;1.60;;
11763;SDS011;5939;56.522;14.950;2023-03-17T03:28:42;1.83;;;1.20;;
11763;SDS011;5939;56.522;14.950;2023-03-17T03:31:08;5.63;;;1.17;;
11763;SDS011;5939;56.522;14.950;2023-03-17T03:33:34;2.87;;;1.37;;
11763;SDS011;5939;56.522;14.950;2023-03-17T03:36:00;1.40;;;1.00;;
11763;SDS011;5939;56.522;14.950;2023-03-17T03:38:27;2.00;;;1.27;;
11763;SDS011;5939;56.522;14.950;2023-03-17T03:40:52;4.27;;;1.60;;
11763;SDS011;5939;56.522;14.950;2023-03-17T03:43:18;2.13;;;1.10;;
11763;SDS011;5939;56.522;14.950;2023-03-17T03:45:45;1.57;;;1.10;;
11763;SDS011;5939;56.522;14.950;2023-03-17T03:48:11;2.90;;;1.10;;
11763;SDS011;5939;56.522;14.950;2023-03-17T03:50:37;6.13;;;1.67;;
11763;SDS011;5939;56.522;14.950;2023-03-17T03:53:02;1.53;;;1.20;;
11763;SDS011;5939;56.522;14.950;2023-03-17T03:55:28;3.00;;;1.20;;
11763;SDS011;5939;56.522;14.950;2023-03-17T03:57:54;2.27;;;1.07;;
11763;SDS011;5939;56.522;14.950;2023-03-17T04:00:20;2.87;;;1.30;;
11763;SDS011;5939;56.522;14.950;2023-03-17T04:02:46;1.00;;;0.90;;
11763;SDS011;5939;56.522;14.950;2023-03-17T04:05:13;1.30;;;1.00;;
11763;SDS011;5939;56.522;14.950;2023-03-17T04:07:40;2.00;;;1.30;;
11763;SDS011;5939;56.522;14.950;2023-03-17T04:10:07;1.60;;;1.27;;
11763;SDS011;5939;56.522;14.950;2023-03-17T04:12:34;2.67;;;1.37;;
11763;SDS011;5939;56.522;14.950;2023-03-17T04:15:00;3.23;;;1.20;;
11763;SDS011;5939;56.522;14.950;2023-03-17T04:17:26;2.57;;;1.30;;
11763;SDS011;5939;56.522;14.950;2023-03-17T04:19:51;3.13;;;1.40;;
11763;SDS011;5939;56.522;14.950;2023-03-17T04:22:17;3.57;;;1.50;;
11763;SDS011;5939;56.522;14.950;2023-03-17T04:24:43;2.97;;;1.37;;
11763;SDS011;5939;56.522;14.950;2023-03-17T04:27:10;3.60;;;1.63;;
11763;SDS011;5939;56.522;14.950;2023-03-17T04:29:36;4.07;;;1.30;;
11763;SDS011;5939;56.522;14.950;2023-03-17T04:32:02;1.20;;;1.00;;
11763;SDS011;5939;56.522;14.950;2023-03-17T04:34:28;1.97;;;1.70;;
11763;SDS011;5939;56.522;14.950;2023-03-17T04:36:53;1.73;;;1.10;;
11763;SDS011;5939;56.522;14.950;2023-03-17T04:39:19;2.57;;;1.10;;
11763;SDS011;5939;56.522;14.950;2023-03-17T04:41:45;3.23;;;1.30;;
11763;SDS011;5939;56.522;14.950;2023-03-17T04:44:11;2.77;;;1.30;;
11763;SDS011;5939;56.522;14.950;2023-03-17T04:46:36;2.70;;;1.33;;
11763;SDS011;5939;56.522;14.950;2023-03-17T04:49:02;3.63;;;1.30;;
11763;SDS011;5939;56.522;14.950;2023-03-17T04:51:28;1.50;;;1.07;;
11763;SDS011;5939;56.522;14.950;2023-03-17T04:53:55;2.87;;;1.40;;
11763;SDS011;5939;56.522;14.950;2023-03-17T04:56:21;2.73;;;1.47;;
11763;SDS011;5939;56.522;14.950;2023-03-17T04:58:46;2.53;;;1.30;;
11763;SDS011;5939;56.522;14.950;2023-03-17T05:01:12;2.77;;;1.33;;
11763;SDS011;5939;56.522;14.950;2023-03-17T05:03:38;4.67;;;1.40;;
11763;SDS011;5939;56.522;14.950;2023-03-17T05:06:04;2.17;;;1.40;;
11763;SDS011;5939;56.522;14.950;2023-03-17T05:08:31;2.13;;;1.60;;
11763;SDS011;5939;56.522;14.950;2023-03-17T05:10:57;2.47;;;1.30;;
11763;SDS011;5939;56.522;14.950;2023-03-17T05:13:23;3.60;;;1.60;;
11763;SDS011;5939;56.522;14.950;2023-03-17T05:15:50;2.27;;;1.33;;
11763;SDS011;5939;56.522;14.950;2023-03-17T05:18:18;1.80;;;1.27;;
11763;SDS011;5939;56.522;14.950;2023-03-17T05:20:44;2.77;;;1.40;;
11763;SDS011;5939;56.522;14.950;2023-03-17T05:23:11;3.83;;;1.60;;
11763;SDS011;5939;56.522;14.950;2023-03-17T05:25:37;2.47;;;1.20;;
11763;SDS011;5939;56.522;14.950;2023-03-17T05:28:04;3.10;;;1.50;;
11763;SDS011;5939;56.522;14.950;2023-03-17T05:30:31;3.20;;;1.57;;
11763;SDS011;5939;56.522;14.950;2023-03-17T05:32:57;3.30;;;1.50;;
11763;SDS011;5939;56.522;14.950;2023-03-17T05:35:23;2.97;;;1.63;;
11763;SDS011;5939;56.522;14.950;2023-03-17T05:37:49;3.37;;;1.43;;
11763;SDS011;5939;56.522;14.950;2023-03-17T05:40:15;2.20;;;2.00;;
11763;SDS011;5939;56.522;14.950;2023-03-17T05:42:41;4.67;;;1.60;;
11763;SDS011;5939;56.522;14.950;2023-03-17T05:45:06;4.43;;;1.60;;
11763;SDS011;5939;56.522;14.950;2023-03-17T05:47:33;3.57;;;1.40;;
11763;SDS011;5939;56.522;14.950;2023-03-17T05:50:00;2.90;;;1.57;;
11763;SDS011;5939;56.522;14.950;2023-03-17T05:52:27;3.57;;;1.40;;
11763;SDS011;5939;56.522;14.950;2023-03-17T05:54:53;5.10;;;1.83;;
11763;SDS011;5939;56.522;14.950;2023-03-17T05:57:19;3.67;;;1.77;;
11763;SDS011;5939;56.522;14.950;2023-03-17T05:59:45;3.63;;;1.70;;
11763;SDS011;5939;56.522;14.950;2023-03-17T06:02:12;3.47;;;1.87;;
11763;SDS011;5939;56.522;14.950;2023-03-17T06:04:38;2.23;;;1.60;;
11763;SDS011;5939;56.522;14.950;2023-03-17T06:07:04;4.90;;;1.60;;
11763;SDS011;5939;56.522;14.950;2023-03-17T06:09:30;4.33;;;1.80;;
11763;SDS011;5939;56.522;14.950;2023-03-17T06:11:57;5.60;;;2.00;;
11763;SDS011;5939;56.522;14.950;2023-03-17T06:14:23;3.00;;;2.20;;
11763;SDS011;5939;56.522;14.950;2023-03-17T06:16:49;6.27;;;2.40;;
11763;SDS011;5939;56.522;14.950;2023-03-17T06:19:15;4.23;;;2.13;;
11763;SDS011;5939;56.522;14.950;2023-03-17T06:21:40;3.67;;;2.20;;
11763;SDS011;5939;56.522;14.950;2023-03-17T06:24:06;5.00;;;2.47;;
11763;SDS011;5939;56.522;14.950;2023-03-17T06:26:33;4.93;;;2.17;;
11763;SDS011;5939;56.522;14.950;2023-03-17T06:29:01;5.03;;;2.63;;
11763;SDS011;5939;56.522;14.950;2023-03-17T06:31:27;5.80;;;2.27;;
11763;SDS011;5939;56.522;14.950;2023-03-17T06:33:53;5.67;;;2.43;;
11763;SDS011;5939;56.522;14.950;2023-03-17T06:36:18;6.33;;;2.30;;
11763;SDS011;5939;56.522;14.950;2023-03-17T06:38:44;4.67;;;2.33;;
11763;SDS011;5939;56.522;14.950;2023-03-17T06:41:10;4.67;;;2.40;;
11763;SDS011;5939;56.522;14.950;2023-03-17T06:43:36;5.00;;;2.50;;
11763;SDS011;5939;56.522;14.950;2023-03-17T06:46:02;4.50;;;2.80;;
11763;SDS011;5939;56.522;14.950;2023-03-17T06:48:28;4.80;;;2.70;;
11763;SDS011;5939;56.522;14.950;2023-03-17T06:50:54;6.23;;;3.07;;
11763;SDS011;5939;56.522;14.950;2023-03-17T06:53:20;5.87;;;2.63;;
11763;SDS011;5939;56.522;14.950;2023-03-17T06:55:45;6.13;;;3.13;;
11763;SDS011;5939;56.522;14.950;2023-03-17T06:58:12;6.53;;;3.20;;
11763;SDS011;5939;56.522;14.950;2023-03-17T07:00:40;6.57;;;2.90;;
11763;SDS011;5939;56.522;14.950;2023-03-17T07:03:05;6.93;;;3.03;;
11763;SDS011;5939;56.522;14.950;2023-03-17T07:05:31;5.93;;;3.07;;
11763;SDS011;5939;56.522;14.950;2023-03-17T07:07:57;9.60;;;3.37;;
11763;SDS011;5939;56.522;14.950;2023-03-17T07:10:23;6.53;;;3.20;;
11763;SDS011;5939;56.522;14.950;2023-03-17T07:12:49;6.30;;;3.20;;
11763;SDS011;5939;56.522;14.950;2023-03-17T07:15:15;8.63;;;3.33;;
11763;SDS011;5939;56.522;14.950;2023-03-17T07:17:41;6.60;;;2.93;;
11763;SDS011;5939;56.522;14.950;2023-03-17T07:20:08;6.20;;;3.23;;
11763;SDS011;5939;56.522;14.950;2023-03-17T07:22:35;6.90;;;3.73;;
11763;SDS011;5939;56.522;14.950;2023-03-17T07:25:01;6.53;;;3.00;;
11763;SDS011;5939;56.522;14.950;2023-03-17T07:27:27;4.83;;;3.27;;
11763;SDS011;5939;56.522;14.950;2023-03-17T07:29:53;7.10;;;3.10;;
11763;SDS011;5939;56.522;14.950;2023-03-17T07:32:18;6.60;;;3.10;;
11763;SDS011;5939;56.522;14.950;2023-03-17T07:34:44;6.47;;;3.33;;
11763;SDS011;5939;56.522;14.950;2023-03-17T07:37:10;6.50;;;2.70;;
11763;SDS011;5939;56.522;14.950;2023-03-17T07:39:36;5.40;;;2.73;;
11763;SDS011;5939;56.522;14.950;2023-03-17T07:42:03;6.80;;;3.20;;
11763;SDS011;5939;56.522;14.950;2023-03-17T07:44:28;9.67;;;3.23;;
11763;SDS011;5939;56.522;14.950;2023-03-17T07:46:55;7.70;;;2.97;;
11763;SDS011;5939;56.522;14.950;2023-03-17T07:49:21;7.50;;;3.20;;
11763;SDS011;5939;56.522;14.950;2023-03-17T07:51:46;7.73;;;3.00;;
11763;SDS011;5939;56.522;14.950;2023-03-17T07:54:12;5.47;;;2.60;;
11763;SDS011;5939;56.522;14.950;2023-03-17T07:56:38;7.27;;;2.67;;
11763;SDS011;5939;56.522;14.950;2023-03-17T07:59:05;7.93;;;3.13;;
11763;SDS011;5939;56.522;14.950;2023-03-17T08:01:34;4.93;;;2.80;;
11763;SDS011;5939;56.522;14.950;2023-03-17T08:04:00;5.87;;;3.10;;
11763;SDS011;5939;56.522;14.950;2023-03-17T08:06:28;5.20;;;2.80;;
11763;SDS011;5939;56.522;14.950;2023-03-17T08:08:55;6.27;;;2.70;;
11763;SDS011;5939;56.522;14.950;2023-03-17T08:11:21;5.30;;;2.70;;
11763;SDS011;5939;56.522;14.950;2023-03-17T08:13:47;5.40;;;2.60;;
11763;SDS011;5939;56.522;14.950;2023-03-17T08:16:14;6.27;;;2.60;;
11763;SDS011;5939;56.522;14.950;2023-03-17T08:18:40;5.80;;;3.00;;
11763;SDS011;5939;56.522;14.950;2023-03-17T08:21:05;5.80;;;3.00;;
11763;SDS011;5939;56.522;14.950;2023-03-17T08:23:31;6.63;;;2.83;;
11763;SDS011;5939;56.522;14.950;2023-03-17T08:26:00;4.93;;;2.50;;
11763;SDS011;5939;56.522;14.950;2023-03-17T08:28:29;5.50;;;3.27;;
11763;SDS011;5939;56.522;14.950;2023-03-17T08:31:09;8.17;;;3.00;;
11763;SDS011;5939;56.522;14.950;2023-03-17T08:33:37;8.70;;;2.80;;
11763;SDS011;5939;56.522;14.950;2023-03-17T08:36:07;6.67;;;2.83;;
11763;SDS011;5939;56.522;14.950;2023-03-17T08:38:35;5.57;;;3.30;;
11763;SDS011;5939;56.522;14.950;2023-03-17T08:41:02;7.93;;;3.27;;
11763;SDS011;5939;56.522;14.950;2023-03-17T08:43:30;6.03;;;2.80;;
11763;SDS011;5939;56.522;14.950;2023-03-17T08:45:59;6.73;;;2.90;;
11763;SDS011;5939;56.522;14.950;2023-03-17T08:48:31;7.67;;;2.83;;
11763;SDS011;5939;56.522;14.950;2023-03-17T08:50:59;4.73;;;2.90;;
11763;SDS011;5939;56.522;14.950;2023-03-17T08:53:25;7.33;;;2.90;;
11763;SDS011;5939;56.522;14.950;2023-03-17T08:55:53;6.67;;;2.50;;
11763;SDS011;5939;56.522;14.950;2023-03-17T08:58:20;6.70;;;2.60;;
11763;SDS011;5939;56.522;14.950;2023-03-17T09:00:45;5.27;;;2.33;;
11763;SDS011;5939;56.522;14.950;2023-03-17T09:03:12;7.10;;;3.10;;
11763;SDS011;5939;56.522;14.950;2023-03-17T09:05:38;7.67;;;3.30;;
11763;SDS011;5939;56.522;14.950;2023-03-17T09:08:05;4.63;;;2.87;;
11763;SDS011;5939;56.522;14.950;2023-03-17T09:10:31;6.47;;;3.10;;
11763;SDS011;5939;56.522;14.950;2023-03-17T09:12:57;6.63;;;3.27;;
11763;SDS011;5939;56.522;14.950;2023-03-17T09:15:27;5.90;;;2.63;;
11763;SDS011;5939;56.522;14.950;2023-03-17T09:17:53;6.13;;;3.40;;
11763;SDS011;5939;56.522;14.950;2023-03-17T09:20:19;7.87;;;2.97;;
11763;SDS011;5939;56.522;14.950;2023-03-17T09:22:45;8.20;;;3.13;;
11763;SDS011;5939;56.522;14.950;2023-03-17T09:25:13;8.20;;;2.87;;
11763;SDS011;5939;56.522;14.950;2023-03-17T09:27:39;8.40;;;3.20;;
11763;SDS011;5939;56.522;14.950;2023-03-17T09:30:05;5.73;;;3.30;;
11763;SDS011;5939;56.522;14.950;2023-03-17T09:32:34;7.20;;;3.40;;
11763;SDS011;5939;56.522;14.950;2023-03-17T09:35:01;8.20;;;3.07;;
11763;SDS011;5939;56.522;14.950;2023-03-17T09:37:27;7.53;;;3.20;;
11763;SDS011;5939;56.522;14.950;2023-03-17T09:39:54;6.70;;;3.33;;
11763;SDS011;5939;56.522;14.950;2023-03-17T09:50:13;10.90;;;3.43;;
11763;SDS011;5939;56.522;14.950;2023-03-17T09:52:43;6.47;;;3.37;;
11763;SDS011;5939;56.522;14.950;2023-03-17T09:55:11;8.30;;;3.60;;
11763;SDS011;5939;56.522;14.950;2023-03-17T09:57:51;6.13;;;3.17;;
11763;SDS011;5939;56.522;14.950;2023-03-17T10:00:20;10.37;;;3.83;;
11763;SDS011;5939;56.522;14.950;2023-03-17T10:02:51;6.40;;;3.20;;
11763;SDS011;5939;56.522;14.950;2023-03-17T10:05:18;6.67;;;3.97;;
11763;SDS011;5939;56.522;14.950;2023-03-17T10:07:57;6.23;;;3.23;;
11763;SDS011;5939;56.522;14.950;2023-03-17T10:13:12;8.43;;;3.87;;
11763;SDS011;5939;56.522;14.950;2023-03-17T10:18:16;7.50;;;3.73;;
11763;SDS011;5939;56.522;14.950;2023-03-17T10:20:54;7.70;;;3.80;;
11763;SDS011;5939;56.522;14.950;2023-03-17T10:23:23;6.17;;;3.47;;
11763;SDS011;5939;56.522;14.950;2023-03-17T10:25:54;8.17;;;3.60;;
11763;SDS011;5939;56.522;14.950;2023-03-17T10:28:26;7.03;;;3.53;;
11763;SDS011;5939;56.522;14.950;2023-03-17T10:30:56;7.60;;;3.50;;
11763;SDS011;5939;56.522;14.950;2023-03-17T10:33:26;7.07;;;3.63;;
11763;SDS011;5939;56.522;14.950;2023-03-17T10:35:51;6.40;;;3.70;;
11763;SDS011;5939;56.522;14.950;2023-03-17T10:38:18;8.40;;;3.93;;
11763;SDS011;5939;56.522;14.950;2023-03-17T10:40:46;5.47;;;3.47;;
11763;SDS011;5939;56.522;14.950;2023-03-17T10:43:20;8.70;;;4.10;;
11763;SDS011;5939;56.522;14.950;2023-03-17T10:46:03;10.40;;;4.13;;
11763;SDS011;5939;56.522;14.950;2023-03-17T10:48:35;7.33;;;3.80;;
11763;SDS011;5939;56.522;14.950;2023-03-17T10:51:04;6.83;;;3.63;;
11763;SDS011;5939;56.522;14.950;2023-03-17T10:53:37;6.80;;;3.50;;
11763;SDS011;5939;56.522;14.950;2023-03-17T10:56:08;7.50;;;3.77;;
11763;SDS011;5939;56.522;14.950;2023-03-17T10:58:57;6.60;;;4.07;;
11763;SDS011;5939;56.522;14.950;2023-03-17T11:01:39;6.53;;;3.73;;
11763;SDS011;5939;56.522;14.950;2023-03-17T11:04:26;9.70;;;4.13;;
11763;SDS011;5939;56.522;14.950;2023-03-17T11:06:53;9.20;;;3.87;;
11763;SDS011;5939;56.522;14.950;2023-03-17T11:09:21;8.63;;;4.33;;
11763;SDS011;5939;56.522;14.950;2023-03-17T11:11:48;6.87;;;4.67;;
11763;SDS011;5939;56.522;14.950;2023-03-17T11:14:23;6.97;;;4.27;;
11763;SDS011;5939;56.522;14.950;2023-03-17T11:17:27;9.27;;;4.43;;
11763;SDS011;5939;56.522;14.950;2023-03-17T11:19:51;10.63;;;4.60;;
11763;SDS011;5939;56.522;14.950;2023-03-17T11:22:32;9.37;;;4.70;;
11763;SDS011;5939;56.522;14.950;2023-03-17T11:25:15;7.33;;;4.20;;
11763;SDS011;5939;56.522;14.950;2023-03-17T11:35:48;5.87;;;4.13;;
11763;SDS011;5939;56.522;14.950;2023-03-17T11:46:45;8.77;;;4.60;;
11763;SDS011;5939;56.522;14.950;2023-03-17T11:49:27;8.73;;;4.70;;
11763;SDS011;5939;56.522;14.950;2023-03-17T11:57:30;8.37;;;4.50;;
11763;SDS011;5939;56.522;14.950;2023-03-17T12:02:48;10.97;;;4.70;;
11763;SDS011;5939;56.522;14.950;2023-03-17T12:05:22;10.00;;;4.67;;
11763;SDS011;5939;56.522;14.950;2023-03-17T12:07:51;8.27;;;4.90;;
11763;SDS011;5939;56.522;14.950;2023-03-17T12:10:22;10.13;;;4.93;;
11763;SDS011;5939;56.522;14.950;2023-03-17T12:13:11;8.67;;;4.53;;
11763;SDS011;5939;56.522;14.950;2023-03-17T12:20:50;8.43;;;4.93;;
11763;SDS011;5939;56.522;14.950;2023-03-17T12:26:13;8.93;;;4.80;;
11763;SDS011;5939;56.522;14.950;2023-03-17T12:28:55;9.10;;;4.83;;
11763;SDS011;5939;56.522;14.950;2023-03-17T12:31:57;8.73;;;4.97;;
11763;SDS011;5939;56.522;14.950;2023-03-17T12:34:38;10.80;;;4.87;;
11763;SDS011;5939;56.522;14.950;2023-03-17T12:37:14;9.37;;;4.73;;
11763;SDS011;5939;56.522;14.950;2023-03-17T12:39:42;9.47;;;4.67;;
11763;SDS011;5939;56.522;14.950;2023-03-17T12:42:32;9.03;;;4.43;;
11763;SDS011;5939;56.522;14.950;2023-03-17T12:53:51;8.20;;;4.43;;
11763;SDS011;5939;56.522;14.950;2023-03-17T12:56:21;11.60;;;4.87;;
11763;SDS011;5939;56.522;14.950;2023-03-17T12:58:51;7.80;;;5.40;;
11763;SDS011;5939;56.522;14.950;2023-03-17T13:01:30;8.90;;;4.87;;
11763;SDS011;5939;56.522;14.950;2023-03-17T13:04:03;9.10;;;4.90;;
11763;SDS011;5939;56.522;14.950;2023-03-17T13:06:46;9.73;;;5.33;;
11763;SDS011;5939;56.522;14.950;2023-03-17T13:17:51;8.57;;;4.07;;
11763;SDS011;5939;56.522;14.950;2023-03-17T13:20:35;9.53;;;5.67;;
11763;SDS011;5939;56.522;14.950;2023-03-17T13:49:19;9.80;;;4.93;;
11763;SDS011;5939;56.522;14.950;2023-03-17T13:52:06;5.57;;;3.97;;
11763;SDS011;5939;56.522;14.950;2023-03-17T13:54:41;9.20;;;5.07;;
11763;SDS011;5939;56.522;14.950;2023-03-17T13:57:27;6.73;;;4.37;;
11763;SDS011;5939;56.522;14.950;2023-03-17T14:02:45;9.13;;;4.80;;
11763;SDS011;5939;56.522;14.950;2023-03-17T14:05:20;7.87;;;4.67;;
11763;SDS011;5939;56.522;14.950;2023-03-17T14:08:14;6.93;;;4.63;;
11763;SDS011;5939;56.522;14.950;2023-03-17T14:10:57;8.70;;;4.60;;
11763;SDS011;5939;56.522;14.950;2023-03-17T14:13:25;8.73;;;4.57;;
11763;SDS011;5939;56.522;14.950;2023-03-17T14:16:03;8.47;;;4.83;;
11763;SDS011;5939;56.522;14.950;2023-03-17T14:18:39;10.40;;;4.77;;
11763;SDS011;5939;56.522;14.950;2023-03-17T14:21:20;5.60;;;4.17;;
11763;SDS011;5939;56.522;14.950;2023-03-17T14:23:55;8.30;;;4.47;;
11763;SDS011;5939;56.522;14.950;2023-03-17T14:26:26;6.80;;;4.63;;
11763;SDS011;5939;56.522;14.950;2023-03-17T14:28:53;8.67;;;4.67;;
11763;SDS011;5939;56.522;14.950;2023-03-17T14:31:23;8.30;;;4.40;;
11763;SDS011;5939;56.522;14.950;2023-03-17T14:33:55;9.10;;;4.70;;
11763;SDS011;5939;56.522;14.950;2023-03-17T14:36:23;8.80;;;4.50;;
11763;SDS011;5939;56.522;14.950;2023-03-17T14:38:53;8.53;;;4.60;;
11763;SDS011;5939;56.522;14.950;2023-03-17T14:41:24;10.03;;;4.27;;
11763;SDS011;5939;56.522;14.950;2023-03-17T14:43:52;10.20;;;4.50;;
11763;SDS011;5939;56.522;14.950;2023-03-17T14:49:00;7.43;;;4.43;;
11763;SDS011;5939;56.522;14.950;2023-03-17T14:51:29;9.43;;;4.57;;
11763;SDS011;5939;56.522;14.950;2023-03-17T14:54:00;8.17;;;4.77;;
11763;SDS011;5939;56.522;14.950;2023-03-17T14:56:37;8.60;;;3.90;;
11763;SDS011;5939;56.522;14.950;2023-03-17T14:59:07;7.63;;;4.50;;
11763;SDS011;5939;56.522;14.950;2023-03-17T15:01:44;9.00;;;4.00;;
11763;SDS011;5939;56.522;14.950;2023-03-17T15:06:46;9.10;;;4.60;;
11763;SDS011;5939;56.522;14.950;2023-03-17T15:09:18;8.67;;;4.37;;
11763;SDS011;5939;56.522;14.950;2023-03-17T15:11:52;8.87;;;4.00;;
11763;SDS011;5939;56.522;14.950;2023-03-17T15:14:38;7.57;;;4.60;;
11763;SDS011;5939;56.522;14.950;2023-03-17T15:17:06;8.90;;;4.30;;
11763;SDS011;5939;56.522;14.950;2023-03-17T15:19:41;9.23;;;4.90;;
11763;SDS011;5939;56.522;14.950;2023-03-17T15:24:50;6.53;;;4.10;;
11763;SDS011;5939;56.522;14.950;2023-03-17T15:27:35;6.20;;;3.83;;
11763;SDS011;5939;56.522;14.950;2023-03-17T15:30:01;6.53;;;4.37;;
11763;SDS011;5939;56.522;14.950;2023-03-17T15:32:27;6.87;;;4.20;;
11763;SDS011;5939;56.522;14.950;2023-03-17T15:34:54;8.87;;;4.87;;
11763;SDS011;5939;56.522;14.950;2023-03-17T15:37:25;7.80;;;4.10;;
11763;SDS011;5939;56.522;14.950;2023-03-17T15:39:52;9.97;;;5.07;;
11763;SDS011;5939;56.522;14.950;2023-03-17T15:42:20;5.37;;;4.20;;
11763;SDS011;5939;56.522;14.950;2023-03-17T15:44:47;8.10;;;4.80;;
11763;SDS011;5939;56.522;14.950;2023-03-17T15:47:13;10.40;;;4.97;;
11763;SDS011;5939;56.522;14.950;2023-03-17T15:49:41;7.03;;;4.07;;
11763;SDS011;5939;56.522;14.950;2023-03-17T15:52:14;9.37;;;4.50;;
11763;SDS011;5939;56.522;14.950;2023-03-17T15:54:42;9.70;;;4.33;;
11763;SDS011;5939;56.522;14.950;2023-03-17T15:57:09;6.07;;;4.13;;
11763;SDS011;5939;56.522;14.950;2023-03-17T15:59:36;8.40;;;4.30;;
11763;SDS011;5939;56.522;14.950;2023-03-17T16:02:01;10.40;;;4.67;;
11763;SDS011;5939;56.522;14.950;2023-03-17T16:04:27;10.03;;;4.30;;
11763;SDS011;5939;56.522;14.950;2023-03-17T16:06:53;9.40;;;4.67;;
11763;SDS011;5939;56.522;14.950;2023-03-17T16:09:19;8.63;;;4.73;;
11763;SDS011;5939;56.522;14.950;2023-03-17T16:11:45;7.13;;;4.03;;
11763;SDS011;5939;56.522;14.950;2023-03-17T16:14:10;8.57;;;4.90;;
11763;SDS011;5939;56.522;14.950;2023-03-17T16:16:41;7.37;;;3.87;;
11763;SDS011;5939;56.522;14.950;2023-03-17T16:19:13;8.97;;;4.60;;
11763;SDS011;5939;56.522;14.950;2023-03-17T16:21:44;6.43;;;4.37;;
11763;SDS011;5939;56.522;14.950;2023-03-17T16:24:17;9.00;;;4.80;;
11763;SDS011;5939;56.522;14.950;2023-03-17T16:26:45;6.93;;;3.70;;
11763;SDS011;5939;56.522;14.950;2023-03-17T16:29:15;7.57;;;4.40;;
11763;SDS011;5939;56.522;14.950;2023-03-17T16:31:42;6.40;;;4.30;;
11763;SDS011;5939;56.522;14.950;2023-03-17T16:34:20;10.17;;;4.60;;
11763;SDS011;5939;56.522;14.950;2023-03-17T16:36:48;7.93;;;4.70;;
11763;SDS011;5939;56.522;14.950;2023-03-17T16:39:21;8.53;;;4.07;;
11763;SDS011;5939;56.522;14.950;2023-03-17T16:41:47;7.93;;;3.80;;
11763;SDS011;5939;56.522;14.950;2023-03-17T16:44:14;7.23;;;4.53;;
11763;SDS011;5939;56.522;14.950;2023-03-17T16:46:42;6.67;;;3.70;;